Time;durP1;ratioP1;P1;durP2;ratioP2;P2;SDS_P1;SDS_P2;PMS_P1;PMS_P2;Temp;Humidity;BMP_temperature;BMP_pressure;BME280_temperature;BME280_humidity;BME280_pressure;Samples;Min_cycle;Max_cycle;Signal;HPM_P1;HPM_P2
2023/03/12 00:01:49;;;;;;;;;9.00;8.00;23.60;32.90;;;;;;109668;1258;48651;-67
2023/03/12 00:04:15;;;;;;;;;11.50;9.00;23.50;32.90;;;;;;109607;1259;45965;-69
2023/03/12 00:06:41;;;;;;;;;9.00;8.00;23.60;33.10;;;;;;109599;1259;55722;-68
2023/03/12 00:09:08;;;;;;;;;9.00;7.00;23.50;32.90;;;;;;109588;1259;53852;-67
2023/03/12 00:11:34;;;;;;;;;9.00;7.00;23.50;33.00;;;;;;109663;1255;49675;-66
2023/03/12 00:14:00;;;;;;;;;10.50;8.50;23.50;33.00;;;;;;109596;1259;49217;-67
2023/03/12 00:16:27;;;;;;;;;8.00;7.00;23.50;33.00;;;;;;109606;1259;45482;-66
2023/03/12 00:18:54;;;;;;;;;13.50;8.00;23.50;33.20;;;;;;109709;1260;55763;-70
2023/03/12 00:21:21;;;;;;;;;9.00;8.00;23.40;33.10;;;;;;109647;1260;53985;-68
2023/03/12 00:23:48;;;;;;;;;10.00;9.00;23.40;33.00;;;;;;109587;1255;49017;-66
2023/03/12 00:26:15;;;;;;;;;9.00;7.00;23.40;33.00;;;;;;109598;1260;49222;-69
2023/03/12 00:28:41;;;;;;;;;11.50;9.00;23.40;33.20;;;;;;109625;1260;45537;-67
2023/03/12 00:31:20;;;;;;;;;9.50;8.00;23.40;33.00;;;;;;109646;1259;55642;-68
2023/03/12 00:33:48;;;;;;;;;9.00;8.00;23.30;33.00;;;;;;109583;1255;53890;-67
2023/03/12 00:36:17;;;;;;;;;8.67;7.67;23.30;33.00;;;;;;109619;1257;49205;-67
2023/03/12 00:38:44;;;;;;;;;10.00;8.00;23.30;33.10;;;;;;109724;1261;48927;-67
2023/03/12 00:41:10;;;;;;;;;10.00;8.00;23.30;33.00;;;;;;109518;1260;45603;-66
2023/03/12 00:43:36;;;;;;;;;8.00;7.00;23.30;33.10;;;;;;109585;1260;55620;-68
2023/03/12 00:46:03;;;;;;;;;9.00;8.00;23.20;33.00;;;;;;109624;1255;53570;-68
2023/03/12 00:48:29;;;;;;;;;9.50;8.50;23.20;33.20;;;;;;109592;1255;48732;-68
2023/03/12 00:50:55;;;;;;;;;8.50;7.00;23.20;33.00;;;;;;109605;1260;49519;-67
2023/03/12 00:53:22;;;;;;;;;9.00;7.00;23.20;33.10;;;;;;109578;1257;46347;-67
2023/03/12 00:55:48;;;;;;;;;8.00;7.00;23.20;33.10;;;;;;109626;1259;57136;-68
2023/03/12 00:58:14;;;;;;;;;10.00;8.00;23.20;33.10;;;;;;109615;1260;54158;-66
2023/03/12 01:00:40;;;;;;;;;10.00;8.00;23.10;33.00;;;;;;109585;1257;49256;-67
2023/03/12 01:03:07;;;;;;;;;9.67;8.67;23.10;33.10;;;;;;109657;1260;49470;-67
2023/03/12 01:05:36;;;;;;;;;8.50;7.00;23.10;33.10;;;;;;109616;1257;45649;-67
2023/03/12 01:08:04;;;;;;;;;9.00;8.00;23.10;33.30;;;;;;109673;1257;55528;-67
2023/03/12 01:10:30;;;;;;;;;8.50;7.00;23.10;33.60;;;;;;109624;1260;54932;-66
2023/03/12 01:12:56;;;;;;;;;9.50;8.00;23.10;33.20;;;;;;109681;1260;49514;-66
2023/03/12 01:15:23;;;;;;;;;9.00;7.00;23.00;33.10;;;;;;109689;1255;49241;-67
2023/03/12 01:17:50;;;;;;;;;8.00;7.00;23.00;33.10;;;;;;109692;1257;45473;-68
2023/03/12 01:20:16;;;;;;;;;8.00;7.00;23.00;33.10;;;;;;109752;1255;55770;-67
2023/03/12 01:22:43;;;;;;;;;10.00;8.00;23.00;33.20;;;;;;109760;1255;54076;-67
2023/03/12 01:25:10;;;;;;;;;10.00;9.00;23.00;33.20;;;;;;109736;1257;49332;-69
2023/03/12 01:27:36;;;;;;;;;9.00;8.00;23.00;33.20;;;;;;109666;1256;50445;-68
2023/03/12 01:30:04;;;;;;;;;10.00;8.00;23.00;33.20;;;;;;109842;1259;45906;-68
2023/03/12 01:32:31;;;;;;;;;9.00;7.00;22.90;33.20;;;;;;109788;1259;55161;-68
2023/03/12 01:34:58;;;;;;;;;9.00;6.00;22.90;33.20;;;;;;109859;1255;53717;-68
2023/03/12 01:37:25;;;;;;;;;11.00;7.50;22.90;33.20;;;;;;109651;1259;49516;-68
2023/03/12 01:39:51;;;;;;;;;8.00;7.00;22.90;33.20;;;;;;109560;1261;49807;-68
2023/03/12 01:42:17;;;;;;;;;8.67;7.33;22.90;33.30;;;;;;109664;1255;45405;-69
2023/03/12 01:44:58;;;;;;;;;9.00;7.00;22.90;33.40;;;;;;109616;1257;55875;-70
2023/03/12 01:47:25;;;;;;;;;10.00;8.00;22.90;33.40;;;;;;109529;1260;55353;-68
2023/03/12 01:49:53;;;;;;;;;10.00;8.50;22.80;33.30;;;;;;109691;1255;49608;-69
2023/03/12 01:52:21;;;;;;;;;9.00;8.00;22.80;33.30;;;;;;109830;1259;50348;-67
2023/03/12 01:55:09;;;;;;;;;9.00;8.00;22.80;33.40;;;;;;109833;1260;45696;-69
2023/03/12 01:57:46;;;;;;;;;10.00;8.50;22.80;33.40;;;;;;109770;1260;56989;-68
2023/03/12 02:00:19;;;;;;;;;9.00;7.00;22.80;33.30;;;;;;109605;1259;55882;-68
2023/03/12 02:02:47;;;;;;;;;9.00;7.00;22.80;33.30;;;;;;109866;1259;49864;-71
2023/03/12 02:05:24;;;;;;;;;9.00;7.00;22.80;33.40;;;;;;109613;1260;49842;-67
2023/03/12 02:07:50;;;;;;;;;10.00;8.00;22.80;33.30;;;;;;109628;1255;45374;-70
2023/03/12 02:10:17;;;;;;;;;10.00;9.00;22.80;33.40;;;;;;109635;1255;56130;-68
2023/03/12 02:12:43;;;;;;;;;10.50;7.50;22.80;33.40;;;;;;109714;1257;54900;-66
2023/03/12 02:15:10;;;;;;;;;10.67;7.33;22.70;33.40;;;;;;109601;1256;49570;-68
2023/03/12 02:17:38;;;;;;;;;9.00;7.00;22.70;33.40;;;;;;109645;1255;50021;-69
2023/03/12 02:20:15;;;;;;;;;9.00;8.00;22.70;33.60;;;;;;109692;1261;45649;-69
2023/03/12 02:22:45;;;;;;;;;10.00;9.00;22.70;33.70;;;;;;109804;1256;55044;-69
2023/03/12 02:25:29;;;;;;;;;10.00;8.00;22.70;33.70;;;;;;109809;1260;55631;-69
2023/03/12 02:27:57;;;;;;;;;10.00;9.00;22.70;33.50;;;;;;109626;1255;49628;-67
2023/03/12 02:30:24;;;;;;;;;10.00;8.50;22.70;33.70;;;;;;109557;1258;50185;-68
2023/03/12 02:32:52;;;;;;;;;11.00;10.00;22.70;33.50;;;;;;109664;1257;46236;-69
2023/03/12 02:35:19;;;;;;;;;11.00;8.00;22.70;33.50;;;;;;109552;1261;55259;-67
2023/03/12 02:37:54;;;;;;;;;10.00;8.00;22.60;33.50;;;;;;109593;1259;54892;-68
2023/03/12 02:40:27;;;;;;;;;11.00;8.00;22.60;34.00;;;;;;109606;1255;49617;-67
2023/03/12 02:42:54;;;;;;;;;9.00;7.00;22.60;33.50;;;;;;109631;1261;49631;-68
2023/03/12 02:45:21;;;;;;;;;9.00;8.00;22.60;33.50;;;;;;109620;1259;45738;-68
2023/03/12 02:47:48;;;;;;;;;9.00;7.00;22.60;33.50;;;;;;109613;1256;55719;-67
2023/03/12 02:50:15;;;;;;;;;10.00;9.00;22.60;33.50;;;;;;109549;1260;54998;-68
2023/03/12 02:52:41;;;;;;;;;10.00;8.00;22.50;33.50;;;;;;109706;1255;48791;-69
2023/03/12 02:55:08;;;;;;;;;10.00;8.00;22.50;33.50;;;;;;109605;1259;49978;-68
2023/03/12 02:57:37;;;;;;;;;10.50;9.00;22.50;33.50;;;;;;109596;1255;45320;-69
2023/03/12 03:00:11;;;;;;;;;9.00;8.00;22.50;33.50;;;;;;109838;1259;55473;-69
2023/03/12 03:02:38;;;;;;;;;11.50;8.00;22.40;33.50;;;;;;109675;1261;55102;-68
2023/03/12 03:05:05;;;;;;;;;11.00;9.00;22.50;33.60;;;;;;109677;1259;49496;-68
2023/03/12 03:07:31;;;;;;;;;9.00;8.00;22.50;33.50;;;;;;109561;1261;49143;-67
2023/03/12 03:10:03;;;;;;;;;11.00;9.00;22.40;33.40;;;;;;109605;1255;45549;-68
2023/03/12 03:12:34;;;;;;;;;7.50;6.00;22.40;33.50;;;;;;109676;1255;55309;-69
2023/03/12 03:15:01;;;;;;;;;9.00;7.00;22.40;33.50;;;;;;109572;1255;54027;-69
2023/03/12 03:17:27;;;;;;;;;9.50;8.00;22.40;33.50;;;;;;109669;1260;48860;-69
2023/03/12 03:19:53;;;;;;;;;8.67;7.67;22.40;33.50;;;;;;109555;1259;49154;-69
2023/03/12 03:22:21;;;;;;;;;9.67;8.67;22.40;33.50;;;;;;109738;1260;45395;-68
2023/03/12 03:24:47;;;;;;;;;9.50;7.50;22.30;33.90;;;;;;109575;1256;55806;-68
2023/03/12 03:27:14;;;;;;;;;8.00;7.00;22.30;33.70;;;;;;109589;1259;53630;-68
2023/03/12 03:29:40;;;;;;;;;11.00;9.00;22.30;33.50;;;;;;109633;1260;49584;-68
2023/03/12 03:32:06;;;;;;;;;10.00;9.00;22.30;33.50;;;;;;109753;1260;49868;-68
2023/03/12 03:34:33;;;;;;;;;10.00;8.00;22.30;33.60;;;;;;109676;1260;45393;-69
2023/03/12 03:36:59;;;;;;;;;9.00;7.75;22.30;33.50;;;;;;109637;1258;55238;-71
2023/03/12 03:39:28;;;;;;;;;10.00;9.00;22.30;33.60;;;;;;109658;1260;53913;-69
2023/03/12 03:41:54;;;;;;;;;9.50;8.00;22.20;33.70;;;;;;110091;1255;48927;-69
2023/03/12 03:44:21;;;;;;;;;9.33;7.67;22.20;33.50;;;;;;109604;1259;48549;-67
2023/03/12 03:46:48;;;;;;;;;8.00;7.00;22.20;33.50;;;;;;109600;1255;45352;-66
2023/03/12 03:49:15;;;;;;;;;9.67;8.00;22.20;33.60;;;;;;109541;1261;56766;-67
2023/03/12 03:51:42;;;;;;;;;8.50;7.50;22.20;33.50;;;;;;109616;1257;54342;-67
2023/03/12 03:54:09;;;;;;;;;9.00;8.00;22.20;33.50;;;;;;109707;1258;49235;-66
2023/03/12 03:56:36;;;;;;;;;9.00;8.00;22.20;33.50;;;;;;109674;1259;49221;-66
2023/03/12 03:59:02;;;;;;;;;8.00;7.00;22.20;33.50;;;;;;109618;1255;45463;-67
2023/03/12 04:01:30;;;;;;;;;10.00;9.00;22.20;33.70;;;;;;109694;1260;56173;-69
2023/03/12 04:03:57;;;;;;;;;9.00;8.00;22.10;33.50;;;;;;109574;1255;53367;-68
2023/03/12 04:06:23;;;;;;;;;9.00;7.00;22.10;33.50;;;;;;109561;1261;50218;-66
2023/03/12 04:08:50;;;;;;;;;9.50;8.00;22.10;33.50;;;;;;109726;1255;49210;-67
2023/03/12 04:11:20;;;;;;;;;10.00;9.00;22.10;33.70;;;;;;109634;1255;45266;-68
2023/03/12 04:13:48;;;;;;;;;9.00;8.00;22.10;33.50;;;;;;109753;1255;55983;-68
2023/03/12 04:16:15;;;;;;;;;10.00;8.00;22.10;33.60;;;;;;109629;1259;53815;-66
2023/03/12 04:18:41;;;;;;;;;11.00;8.00;22.10;33.60;;;;;;109619;1255;49472;-68
2023/03/12 04:21:10;;;;;;;;;10.00;9.00;22.00;33.70;;;;;;109744;1255;49595;-67
2023/03/12 04:23:37;;;;;;;;;9.00;8.00;22.00;33.50;;;;;;109742;1260;45446;-65
2023/03/12 04:26:04;;;;;;;;;12.00;10.00;22.00;33.50;;;;;;109816;1255;56451;-66
2023/03/12 04:28:31;;;;;;;;;10.00;8.00;22.00;33.50;;;;;;109805;1259;54914;-66
2023/03/12 04:31:02;;;;;;;;;9.00;8.00;21.90;33.40;;;;;;109840;1259;49403;-66
2023/03/12 04:33:30;;;;;;;;;9.00;8.00;22.00;33.50;;;;;;109631;1257;49766;-66
2023/03/12 04:35:57;;;;;;;;;8.00;6.50;21.90;33.50;;;;;;109616;1255;45433;-66
2023/03/12 04:38:25;;;;;;;;;10.00;8.00;21.90;33.50;;;;;;109510;1261;55794;-65
2023/03/12 04:40:59;;;;;;;;;9.00;7.00;21.90;33.50;;;;;;109636;1260;54333;-66
2023/03/12 04:43:27;;;;;;;;;11.50;8.50;21.90;33.50;;;;;;109661;1258;50741;-68
2023/03/12 04:45:54;;;;;;;;;10.00;8.00;21.90;33.50;;;;;;109527;1261;49185;-68
2023/03/12 04:48:22;;;;;;;;;10.00;9.00;21.90;33.70;;;;;;109591;1255;45707;-67
2023/03/12 04:50:48;;;;;;;;;10.00;8.00;21.90;33.50;;;;;;109603;1257;55496;-67
2023/03/12 04:53:15;;;;;;;;;10.00;8.50;21.90;33.60;;;;;;109620;1255;53539;-67
2023/03/12 04:55:41;;;;;;;;;9.00;8.00;21.80;33.70;;;;;;109812;1260;50671;-65
2023/03/12 04:58:08;;;;;;;;;10.00;8.00;21.80;33.50;;;;;;109522;1257;49229;-65
2023/03/12 05:00:34;;;;;;;;;10.00;8.00;21.80;33.50;;;;;;109665;1257;45561;-66
2023/03/12 05:03:00;;;;;;;;;10.50;9.00;21.80;33.60;;;;;;109676;1255;56027;-66
2023/03/12 05:05:26;;;;;;;;;;;21.80;33.60;;;;;;109572;1255;54282;-66
2023/03/12 05:07:52;;;;;;;;;11.00;9.00;21.80;33.60;;;;;;109672;1255;49246;-65
2023/03/12 05:10:19;;;;;;;;;11.00;8.00;21.80;33.60;;;;;;109695;1259;50099;-66
2023/03/12 05:12:45;;;;;;;;;9.50;7.50;21.70;33.70;;;;;;109672;1260;46063;-65
2023/03/12 05:15:11;;;;;;;;;9.50;8.00;21.70;33.50;;;;;;109752;1260;56069;-67
2023/03/12 05:17:38;;;;;;;;;9.00;8.00;21.70;33.50;;;;;;109954;1256;54334;-67
2023/03/12 05:20:05;;;;;;;;;10.00;9.00;21.70;33.70;;;;;;109795;1255;50338;-68
2023/03/12 05:22:31;;;;;;;;;10.00;8.00;21.70;33.70;;;;;;109647;1260;49248;-67
2023/03/12 05:24:57;;;;;;;;;10.50;9.00;21.70;33.50;;;;;;109763;1260;45224;-67
2023/03/12 05:27:27;;;;;;;;;9.00;8.00;21.70;33.50;;;;;;109891;1255;55847;-67
2023/03/12 05:29:53;;;;;;;;;10.00;9.00;21.70;33.80;;;;;;109742;1255;54088;-68
2023/03/12 05:32:19;;;;;;;;;9.00;8.00;21.70;33.60;;;;;;109690;1260;49515;-68
2023/03/12 05:34:46;;;;;;;;;9.00;8.00;21.60;33.50;;;;;;109695;1260;50515;-68
2023/03/12 05:37:12;;;;;;;;;10.00;9.00;21.60;33.50;;;;;;109651;1255;45759;-66
2023/03/12 05:39:39;;;;;;;;;9.50;8.00;21.60;33.50;;;;;;109618;1260;55965;-66
2023/03/12 05:42:06;;;;;;;;;9.00;8.00;21.60;33.50;;;;;;109578;1261;53701;-67
2023/03/12 05:44:34;;;;;;;;;10.00;8.00;21.60;33.60;;;;;;109617;1255;48995;-66
2023/03/12 05:47:00;;;;;;;;;9.50;8.00;21.60;33.50;;;;;;109821;1255;49689;-67
2023/03/12 05:49:27;;;;;;;;;9.50;8.00;21.60;33.60;;;;;;109852;1260;45401;-66
2023/03/12 05:51:53;;;;;;;;;9.00;7.67;21.60;33.60;;;;;;109629;1260;55841;-66
2023/03/12 05:54:19;;;;;;;;;11.00;9.33;21.50;33.50;;;;;;109662;1260;53540;-69
2023/03/12 05:56:46;;;;;;;;;9.00;8.00;21.60;33.80;;;;;;109727;1260;48782;-68
2023/03/12 05:59:12;;;;;;;;;8.00;7.00;21.60;33.60;;;;;;109668;1255;50139;-64
2023/03/12 06:01:39;;;;;;;;;11.00;9.00;21.50;33.60;;;;;;109654;1256;46422;-65
2023/03/12 06:04:05;;;;;;;;;9.50;8.50;21.50;33.60;;;;;;109601;1256;55299;-64
2023/03/12 06:06:34;;;;;;;;;11.00;9.00;21.50;33.60;;;;;;109655;1260;54180;-68
2023/03/12 06:09:02;;;;;;;;;9.00;8.00;21.50;33.60;;;;;;109661;1260;48543;-68
2023/03/12 06:11:29;;;;;;;;;11.00;9.00;21.50;33.60;;;;;;109601;1258;48656;-68
2023/03/12 06:13:56;;;;;;;;;10.67;9.67;21.50;33.60;;;;;;109593;1257;45852;-67
2023/03/12 06:16:25;;;;;;;;;10.33;9.00;21.50;33.90;;;;;;109667;1255;55688;-67
2023/03/12 06:18:58;;;;;;;;;9.00;7.00;21.50;33.60;;;;;;109651;1261;54128;-68
2023/03/12 06:21:27;;;;;;;;;10.00;8.00;21.50;33.70;;;;;;109642;1255;49341;-68
2023/03/12 06:23:54;;;;;;;;;10.50;8.50;21.50;33.70;;;;;;109555;1260;48761;-69
2023/03/12 06:26:21;;;;;;;;;11.00;10.00;21.50;33.80;;;;;;109611;1259;46661;-68
2023/03/12 06:28:49;;;;;;;;;9.00;8.00;21.50;33.90;;;;;;109623;1260;56157;-68
2023/03/12 06:31:17;;;;;;;;;9.00;8.00;21.50;33.90;;;;;;109675;1260;53936;-68
2023/03/12 06:33:43;;;;;;;;;9.00;8.00;21.50;34.30;;;;;;109546;1261;49936;-68
2023/03/12 06:36:10;;;;;;;;;12.00;9.00;21.50;33.90;;;;;;109631;1257;48806;-69
2023/03/12 06:38:38;;;;;;;;;11.00;9.00;21.50;33.90;;;;;;109448;1261;45282;-67
2023/03/12 06:41:14;;;;;;;;;11.50;10.00;21.50;34.10;;;;;;109629;1256;55455;-68
2023/03/12 06:43:41;;;;;;;;;9.00;7.50;21.40;33.80;;;;;;109608;1260;53597;-69
2023/03/12 06:46:11;;;;;;;;;10.00;8.00;21.50;33.90;;;;;;109375;1259;49197;-67
2023/03/12 06:48:40;;;;;;;;;11.00;9.33;21.50;33.90;;;;;;109684;1259;49787;-68
2023/03/12 06:51:08;;;;;;;;;10.00;8.67;21.50;33.90;;;;;;109615;1255;46075;-68
2023/03/12 06:53:34;;;;;;;;;9.67;8.67;21.50;33.60;;;;;;109658;1260;55075;-69
2023/03/12 06:56:01;;;;;;;;;11.00;10.00;21.50;34.10;;;;;;109720;1260;53759;-69
2023/03/12 06:58:28;;;;;;;;;9.00;8.00;21.50;33.90;;;;;;109782;1255;49756;-68
2023/03/12 07:00:55;;;;;;;;;10.00;9.00;21.60;34.00;;;;;;109722;1259;49009;-64
2023/03/12 07:03:21;;;;;;;;;10.00;7.00;21.60;34.00;;;;;;109835;1259;46104;-65
2023/03/12 07:05:49;;;;;;;;;11.00;9.00;21.60;34.00;;;;;;109666;1255;147376;-64
2023/03/12 07:08:16;;;;;;;;;9.00;8.00;21.60;33.90;;;;;;109725;1260;54117;-65
2023/03/12 07:10:42;;;;;;;;;11.50;8.50;21.60;33.90;;;;;;109899;1255;50755;-65
2023/03/12 07:13:09;;;;;;;;;9.00;8.00;21.70;34.00;;;;;;109678;1255;49549;-66
2023/03/12 07:15:35;;;;;;;;;10.50;9.00;21.70;34.00;;;;;;109718;1255;46177;-69
2023/03/12 07:18:07;;;;;;;;;9.00;8.00;21.70;33.90;;;;;;109769;1260;55471;-70
2023/03/12 07:20:36;;;;;;;;;10.00;9.00;21.70;33.90;;;;;;109658;1261;53617;-71
2023/03/12 07:23:04;;;;;;;;;9.00;7.00;21.80;33.90;;;;;;109709;1255;49586;-69
2023/03/12 07:25:30;;;;;;;;;11.00;10.00;21.80;33.90;;;;;;109639;1255;49591;-69
2023/03/12 07:27:56;;;;;;;;;9.00;8.00;21.90;33.90;;;;;;109614;1259;46000;-66
2023/03/12 07:30:23;;;;;;;;;10.00;7.00;21.90;33.90;;;;;;109677;1258;55362;-67
2023/03/12 07:32:49;;;;;;;;;;;21.90;33.80;;;;;;109720;1257;54979;-66
2023/03/12 07:35:15;;;;;;;;;10.00;8.50;22.00;33.90;;;;;;109675;1259;48864;-70
2023/03/12 07:37:42;;;;;;;;;14.00;10.00;22.00;34.10;;;;;;109806;1260;49724;-66
2023/03/12 07:40:09;;;;;;;;;8.00;7.00;22.00;33.80;;;;;;109599;1257;46706;-65
2023/03/12 07:42:35;;;;;;;;;10.00;9.00;22.00;33.80;;;;;;109740;1255;56097;-66
2023/03/12 07:45:03;;;;;;;;;11.00;9.00;22.10;33.80;;;;;;109716;1260;54365;-66
2023/03/12 07:47:29;;;;;;;;;8.25;7.00;22.10;33.70;;;;;;109648;1259;49817;-65
2023/03/12 07:49:55;;;;;;;;;9.67;8.00;22.20;33.80;;;;;;109719;1257;49506;-67
2023/03/12 07:52:22;;;;;;;;;9.50;8.50;22.20;33.80;;;;;;109853;1255;45889;-66
2023/03/12 07:54:51;;;;;;;;;11.00;8.00;22.20;33.80;;;;;;109692;1261;55761;-66
2023/03/12 07:57:17;;;;;;;;;10.00;9.00;22.20;33.80;;;;;;109588;1256;54104;-65
2023/03/12 07:59:43;;;;;;;;;10.67;8.67;22.30;33.80;;;;;;109587;1255;49583;-67
2023/03/12 08:02:10;;;;;;;;;11.00;9.00;22.30;33.80;;;;;;109735;1255;49438;-66
2023/03/12 08:04:36;;;;;;;;;9.50;8.00;22.30;34.00;;;;;;109696;1259;45272;-65
2023/03/12 08:07:03;;;;;;;;;12.50;11.00;22.30;33.90;;;;;;109676;1259;55454;-65
2023/03/12 08:09:29;;;;;;;;;9.00;8.00;22.30;33.70;;;;;;109726;1255;54050;-67
2023/03/12 08:11:55;;;;;;;;;11.00;8.00;22.30;33.70;;;;;;109773;1260;49910;-66
2023/03/12 08:14:22;;;;;;;;;9.00;7.00;22.40;33.80;;;;;;109596;1260;49728;-66
2023/03/12 08:16:48;;;;;;;;;9.00;7.00;22.40;33.70;;;;;;109544;1261;45609;-66
2023/03/12 08:19:14;;;;;;;;;10.33;8.00;22.40;33.60;;;;;;109656;1257;56037;-66
2023/03/12 08:21:41;;;;;;;;;10.00;8.00;22.50;33.70;;;;;;109825;1255;55289;-66
2023/03/12 08:24:08;;;;;;;;;9.00;7.50;22.50;33.70;;;;;;109561;1260;49340;-66
2023/03/12 08:26:34;;;;;;;;;9.00;8.00;22.50;33.30;;;;;;109630;1255;48653;-66
2023/03/12 08:29:01;;;;;;;;;9.50;8.00;22.60;33.80;;;;;;109599;1259;46212;-66
2023/03/12 08:31:27;;;;;;;;;13.00;11.50;22.60;33.80;;;;;;109652;1259;56164;-66
2023/03/12 08:33:54;;;;;;;;;11.00;8.00;22.60;33.80;;;;;;109595;1257;53543;-66
2023/03/12 08:36:20;;;;;;;;;10.00;8.00;22.70;33.80;;;;;;109817;1260;49139;-67
2023/03/12 08:38:46;;;;;;;;;10.00;8.00;22.80;33.90;;;;;;109597;1260;49313;-66
2023/03/12 08:41:13;;;;;;;;;10.00;9.00;22.80;34.00;;;;;;109876;1260;47238;-65
2023/03/12 08:43:39;;;;;;;;;12.00;9.00;22.80;33.80;;;;;;109681;1260;55539;-67
2023/03/12 08:46:05;;;;;;;;;10.00;8.00;22.90;33.90;;;;;;109894;1256;54627;-67
2023/03/12 08:48:32;;;;;;;;;11.00;8.00;23.00;33.90;;;;;;109670;1258;49004;-67
2023/03/12 08:51:02;;;;;;;;;10.00;9.00;23.00;33.80;;;;;;109587;1260;50199;-67
2023/03/12 08:53:31;;;;;;;;;8.67;7.33;23.00;33.80;;;;;;109625;1255;46223;-67
2023/03/12 08:55:57;;;;;;;;;9.50;8.50;23.10;33.90;;;;;;109602;1260;55340;-67
2023/03/12 08:58:25;;;;;;;;;8.50;7.50;23.20;33.90;;;;;;109565;1257;53575;-67
2023/03/12 09:00:52;;;;;;;;;9.00;8.00;23.20;33.80;;;;;;109643;1255;48944;-66
2023/03/12 09:03:20;;;;;;;;;12.00;10.00;23.30;33.90;;;;;;109706;1259;48637;-66
2023/03/12 09:05:47;;;;;;;;;10.00;8.00;23.40;33.90;;;;;;109630;1260;45866;-67
2023/03/12 09:08:14;;;;;;;;;9.00;8.00;23.50;34.00;;;;;;109600;1256;55408;-66
2023/03/12 09:10:47;;;;;;;;;8.50;7.00;23.50;33.90;;;;;;109563;1260;53902;-66
2023/03/12 09:13:14;;;;;;;;;9.00;8.00;23.60;34.30;;;;;;109847;1260;48814;-67
2023/03/12 09:15:40;;;;;;;;;8.00;7.00;23.60;33.90;;;;;;109606;1255;48764;-66
2023/03/12 09:18:06;;;;;;;;;10.00;8.00;23.70;33.90;;;;;;109589;1259;45410;-65
2023/03/12 09:20:32;;;;;;;;;10.00;8.00;23.80;33.90;;;;;;109541;1257;56069;-67
2023/03/12 09:22:58;;;;;;;;;13.00;10.00;23.80;33.80;;;;;;109667;1255;54409;-67
2023/03/12 09:25:25;;;;;;;;;10.00;9.00;23.90;33.90;;;;;;109578;1260;49858;-64
2023/03/12 09:27:51;;;;;;;;;10.00;8.00;24.00;34.40;;;;;;109659;1255;49297;-66
2023/03/12 09:30:19;;;;;;;;;9.00;7.00;24.00;33.90;;;;;;109645;1260;46399;-68
2023/03/12 09:32:46;;;;;;;;;9.50;7.50;24.10;33.90;;;;;;109720;1255;55743;-67
2023/03/12 09:35:15;;;;;;;;;10.50;8.50;24.20;34.00;;;;;;109694;1255;53631;-66
2023/03/12 09:37:41;;;;;;;;;9.00;7.00;24.20;33.80;;;;;;109846;1260;49363;-67
2023/03/12 09:40:14;;;;;;;;;9.00;8.00;24.30;33.90;;;;;;109662;1255;48410;-67
2023/03/12 09:43:11;;;;;;;;;10.00;8.00;24.40;33.90;;;;;;109642;1255;46727;-66
2023/03/12 09:45:42;;;;;;;;;10.00;9.00;24.40;33.90;;;;;;109659;1255;55090;-64
2023/03/12 09:48:27;;;;;;;;;9.00;8.00;24.60;34.10;;;;;;109600;1257;53972;-67
2023/03/12 09:50:54;;;;;;;;;12.00;9.00;24.60;34.00;;;;;;109881;1257;49647;-66
2023/03/12 09:53:23;;;;;;;;;9.67;7.67;24.70;33.80;;;;;;109851;1260;50143;-66
2023/03/12 09:55:51;;;;;;;;;12.00;8.00;24.80;33.80;;;;;;109764;1261;46153;-66
2023/03/12 09:58:33;;;;;;;;;11.00;9.00;24.90;33.80;;;;;;109706;1261;56278;-66
2023/03/12 10:01:25;;;;;;;;;12.00;9.50;24.90;33.90;;;;;;109579;1257;53895;-65
2023/03/12 10:03:59;;;;;;;;;8.67;7.67;25.00;33.90;;;;;;109651;1260;49183;-66
2023/03/12 10:06:32;;;;;;;;;9.00;8.00;25.10;33.90;;;;;;109851;1255;48496;-66
2023/03/12 10:09:16;;;;;;;;;9.50;8.50;25.20;33.90;;;;;;109863;1260;45637;-67
2023/03/12 10:12:22;;;;;;;;;10.00;8.00;25.20;33.80;;;;;;109513;1255;56253;-66
2023/03/12 10:14:52;;;;;;;;;9.00;8.00;25.20;34.00;;;;;;109537;1257;54255;-65
2023/03/12 10:17:30;;;;;;;;;8.00;8.00;25.40;33.80;;;;;;109630;1255;49095;-66
2023/03/12 10:20:21;;;;;;;;;9.00;8.00;25.40;33.80;;;;;;109623;1260;49043;-66
2023/03/12 10:22:47;;;;;;;;;12.00;8.00;25.50;33.80;;;;;;109454;1259;45363;-64
2023/03/12 10:25:40;;;;;;;;;9.00;8.00;25.50;33.80;;;;;;109616;1256;56235;-64
2023/03/12 10:28:16;;;;;;;;;10.00;9.00;25.60;33.70;;;;;;109629;1259;54191;-67
2023/03/12 10:30:49;;;;;;;;;11.00;7.00;25.70;33.70;;;;;;109528;1260;49388;-64
2023/03/12 10:33:18;;;;;;;;;10.00;9.00;25.70;33.60;;;;;;109468;1255;50279;-68
2023/03/12 10:35:44;;;;;;;;;9.00;8.00;25.80;33.60;;;;;;109689;1255;45567;-69
2023/03/12 10:38:16;;;;;;;;;9.50;8.50;25.90;33.80;;;;;;109580;1261;56477;-69
2023/03/12 10:40:42;;;;;;;;;8.50;7.50;25.90;33.50;;;;;;109612;1259;54676;-68
2023/03/12 10:43:09;;;;;;;;;14.00;10.00;25.90;33.50;;;;;;109419;1255;48565;-69
2023/03/12 10:45:53;;;;;;;;;9.00;7.00;26.00;33.60;;;;;;109800;1259;49605;-69
2023/03/12 10:48:23;;;;;;;;;10.00;9.00;26.10;33.00;;;;;;109964;1255;46110;-69
2023/03/12 10:51:09;;;;;;;;;9.33;8.00;26.10;33.40;;;;;;109539;1257;55775;-69
2023/03/12 10:53:43;;;;;;;;;10.00;9.00;26.20;33.50;;;;;;109697;1257;55176;-69
2023/03/12 10:56:15;;;;;;;;;9.00;8.00;26.20;33.40;;;;;;109641;1259;49230;-67
2023/03/12 10:58:46;;;;;;;;;10.00;9.00;26.30;33.80;;;;;;109756;1260;50137;-69
2023/03/12 11:01:30;;;;;;;;;8.00;7.00;26.30;33.30;;;;;;109646;1259;45788;-69
2023/03/12 11:04:16;;;;;;;;;11.00;8.00;26.30;33.20;;;;;;109896;1255;56293;-69
2023/03/12 11:07:11;;;;;;;;;9.00;8.00;26.40;33.50;;;;;;109762;1260;54581;-69
2023/03/12 11:09:37;;;;;;;;;9.00;8.00;26.50;33.20;;;;;;109617;1260;50150;-67
2023/03/12 11:12:30;;;;;;;;;11.00;8.00;26.50;33.10;;;;;;109690;1261;50092;-68
2023/03/12 11:14:57;;;;;;;;;10.00;8.00;26.60;33.10;;;;;;109869;1255;45621;-71
2023/03/12 11:17:26;;;;;;;;;10.00;9.00;26.60;33.00;;;;;;109619;1255;56616;-68
2023/03/12 11:19:53;;;;;;;;;10.00;8.00;26.70;33.00;;;;;;109643;1259;54586;-69
2023/03/12 11:22:33;;;;;;;;;8.00;7.00;26.70;32.90;;;;;;109657;1259;49152;-68
2023/03/12 11:25:05;;;;;;;;;8.50;7.50;26.70;32.90;;;;;;109648;1256;50244;-70
2023/03/12 11:27:40;;;;;;;;;8.67;7.67;26.80;32.90;;;;;;109611;1257;46321;-70
2023/03/12 11:30:15;;;;;;;;;9.00;7.00;26.80;32.80;;;;;;109707;1259;56299;-70
2023/03/12 11:32:46;;;;;;;;;9.00;8.00;26.90;32.90;;;;;;109768;1257;53807;-71
2023/03/12 11:35:15;;;;;;;;;12.50;8.50;26.90;32.80;;;;;;109647;1255;48871;-68
2023/03/12 11:38:06;;;;;;;;;9.00;8.00;26.90;33.00;;;;;;109689;1255;49058;-68
2023/03/12 11:40:46;;;;;;;;;8.00;7.00;27.00;32.80;;;;;;109689;1255;45391;-68
2023/03/12 11:43:15;;;;;;;;;9.00;8.00;27.00;32.80;;;;;;109653;1255;55760;-69
2023/03/12 11:46:00;;;;;;;;;11.00;9.00;27.00;32.70;;;;;;109607;1255;54256;-68
2023/03/12 11:48:41;;;;;;;;;10.00;9.00;27.10;32.70;;;;;;109603;1255;49120;-69
2023/03/12 11:51:43;;;;;;;;;9.50;7.00;27.10;32.90;;;;;;109653;1255;49131;-69
2023/03/12 11:54:43;;;;;;;;;9.00;8.00;27.10;32.60;;;;;;109191;1263;46231;-69
2023/03/12 11:57:31;;;;;;;;;8.00;7.00;27.20;32.60;;;;;;109619;1259;55862;-69
2023/03/12 11:59:59;;;;;;;;;12.00;9.00;27.20;32.50;;;;;;109612;1255;54009;-70
2023/03/12 12:02:37;;;;;;;;;7.00;7.00;27.20;32.70;;;;;;109652;1259;49261;-70
2023/03/12 12:05:06;;;;;;;;;8.67;7.67;27.30;33.10;;;;;;109670;1257;48700;-71
2023/03/12 12:07:52;;;;;;;;;8.50;7.50;27.30;32.50;;;;;;109703;1255;45934;-70
2023/03/12 12:10:27;;;;;;;;;9.00;7.00;27.30;32.50;;;;;;109741;1259;55666;-70
2023/03/12 12:13:08;;;;;;;;;8.00;7.00;27.30;32.60;;;;;;109678;1257;53660;-65
2023/03/12 12:15:44;;;;;;;;;10.50;9.50;27.30;32.60;;;;;;109734;1259;48740;-65
2023/03/12 12:18:33;;;;;;;;;9.50;8.50;27.40;32.40;;;;;;109735;1255;49516;-63
2023/03/12 12:21:08;;;;;;;;;10.00;8.00;27.40;32.40;;;;;;109838;1255;45877;-62
2023/03/12 12:23:47;;;;;;;;;9.00;8.00;27.40;32.40;;;;;;109694;1259;55931;-63
2023/03/12 12:26:21;;;;;;;;;7.00;6.00;27.40;32.50;;;;;;109829;1260;54475;-64
2023/03/12 12:29:01;;;;;;;;;9.00;8.00;27.40;32.20;;;;;;109918;1259;50131;-63
2023/03/12 12:31:35;;;;;;;;;9.00;8.00;27.50;32.30;;;;;;109785;1259;49296;-63
2023/03/12 12:34:15;;;;;;;;;10.00;9.00;27.50;32.20;;;;;;109638;1258;45342;-63
2023/03/12 12:36:47;;;;;;;;;10.00;9.00;27.50;32.20;;;;;;109642;1256;56224;-62
2023/03/12 12:39:18;;;;;;;;;8.00;7.00;27.60;32.10;;;;;;109635;1259;54885;-62
2023/03/12 12:41:52;;;;;;;;;9.00;8.00;27.60;32.10;;;;;;109653;1261;50086;-63
2023/03/12 12:44:26;;;;;;;;;8.00;7.00;27.60;32.10;;;;;;109655;1259;48876;-63
2023/03/12 12:47:00;;;;;;;;;8.00;7.00;27.60;32.20;;;;;;109785;1256;46888;-64